sensor_id;sensor_type;location;lat;lon;timestamp;P1;durP1;ratioP1;P2;durP2;ratioP2
12585;SDS011;6358;50.760;0.282;2024-03-22T00:01:54;1.90;;;1.60;;
12585;SDS011;6358;50.760;0.282;2024-03-22T00:04:21;3.30;;;1.60;;
12585;SDS011;6358;50.760;0.282;2024-03-22T00:06:48;1.67;;;1.47;;
12585;SDS011;6358;50.760;0.282;2024-03-22T00:09:17;2.80;;;1.60;;
12585;SDS011;6358;50.760;0.282;2024-03-22T00:11:43;3.23;;;1.73;;
12585;SDS011;6358;50.760;0.282;2024-03-22T00:14:10;2.37;;;1.70;;
12585;SDS011;6358;50.760;0.282;2024-03-22T00:16:36;2.07;;;1.63;;
12585;SDS011;6358;50.760;0.282;2024-03-22T00:19:02;2.57;;;1.80;;
12585;SDS011;6358;50.760;0.282;2024-03-22T00:21:29;3.67;;;1.80;;
12585;SDS011;6358;50.760;0.282;2024-03-22T00:23:55;1.80;;;1.70;;
12585;SDS011;6358;50.760;0.282;2024-03-22T00:26:21;2.30;;;1.60;;
12585;SDS011;6358;50.760;0.282;2024-03-22T00:28:48;2.50;;;1.80;;
12585;SDS011;6358;50.760;0.282;2024-03-22T00:31:14;2.90;;;1.73;;
12585;SDS011;6358;50.760;0.282;2024-03-22T00:33:40;2.17;;;1.43;;
12585;SDS011;6358;50.760;0.282;2024-03-22T00:36:06;1.90;;;1.70;;
12585;SDS011;6358;50.760;0.282;2024-03-22T00:38:32;1.73;;;1.60;;
12585;SDS011;6358;50.760;0.282;2024-03-22T00:40:59;2.37;;;1.70;;
12585;SDS011;6358;50.760;0.282;2024-03-22T00:43:25;2.73;;;1.87;;
12585;SDS011;6358;50.760;0.282;2024-03-22T00:45:51;2.67;;;1.90;;
12585;SDS011;6358;50.760;0.282;2024-03-22T00:48:17;1.90;;;1.53;;
12585;SDS011;6358;50.760;0.282;2024-03-22T00:50:44;2.73;;;1.70;;
12585;SDS011;6358;50.760;0.282;2024-03-22T00:53:10;4.23;;;1.80;;
12585;SDS011;6358;50.760;0.282;2024-03-22T00:55:36;2.37;;;1.70;;
12585;SDS011;6358;50.760;0.282;2024-03-22T00:58:02;2.13;;;1.80;;
12585;SDS011;6358;50.760;0.282;2024-03-22T01:00:34;1.93;;;1.57;;
12585;SDS011;6358;50.760;0.282;2024-03-22T01:03:02;1.93;;;1.60;;
12585;SDS011;6358;50.760;0.282;2024-03-22T01:05:28;2.53;;;1.77;;
12585;SDS011;6358;50.760;0.282;2024-03-22T01:07:54;2.20;;;1.80;;
12585;SDS011;6358;50.760;0.282;2024-03-22T01:10:20;2.37;;;1.60;;
12585;SDS011;6358;50.760;0.282;2024-03-22T01:12:46;3.03;;;1.77;;
12585;SDS011;6358;50.760;0.282;2024-03-22T01:15:12;2.27;;;1.67;;
12585;SDS011;6358;50.760;0.282;2024-03-22T01:17:38;1.77;;;1.60;;
12585;SDS011;6358;50.760;0.282;2024-03-22T01:20:04;2.63;;;1.80;;
12585;SDS011;6358;50.760;0.282;2024-03-22T01:22:31;2.20;;;1.70;;
12585;SDS011;6358;50.760;0.282;2024-03-22T01:24:57;1.60;;;1.50;;
12585;SDS011;6358;50.760;0.282;2024-03-22T01:27:23;2.37;;;1.90;;
12585;SDS011;6358;50.760;0.282;2024-03-22T01:29:49;1.77;;;1.50;;
12585;SDS011;6358;50.760;0.282;2024-03-22T01:32:15;1.70;;;1.53;;
12585;SDS011;6358;50.760;0.282;2024-03-22T01:34:41;3.10;;;1.90;;
12585;SDS011;6358;50.760;0.282;2024-03-22T01:37:07;1.70;;;1.60;;
12585;SDS011;6358;50.760;0.282;2024-03-22T01:39:34;1.70;;;1.60;;
12585;SDS011;6358;50.760;0.282;2024-03-22T01:42:00;3.27;;;1.90;;
12585;SDS011;6358;50.760;0.282;2024-03-22T01:44:29;1.70;;;1.60;;
12585;SDS011;6358;50.760;0.282;2024-03-22T01:46:57;1.60;;;1.50;;
12585;SDS011;6358;50.760;0.282;2024-03-22T01:49:23;2.00;;;1.70;;
12585;SDS011;6358;50.760;0.282;2024-03-22T01:51:50;1.80;;;1.63;;
12585;SDS011;6358;50.760;0.282;2024-03-22T01:54:16;2.60;;;1.83;;
12585;SDS011;6358;50.760;0.282;2024-03-22T01:56:43;2.47;;;1.43;;
12585;SDS011;6358;50.760;0.282;2024-03-22T01:59:09;2.00;;;1.80;;
12585;SDS011;6358;50.760;0.282;2024-03-22T02:01:35;1.93;;;1.70;;
12585;SDS011;6358;50.760;0.282;2024-03-22T02:04:02;2.47;;;1.80;;
12585;SDS011;6358;50.760;0.282;2024-03-22T02:06:28;1.90;;;1.60;;
12585;SDS011;6358;50.760;0.282;2024-03-22T02:08:54;2.03;;;1.70;;
12585;SDS011;6358;50.760;0.282;2024-03-22T02:11:21;1.73;;;1.60;;
12585;SDS011;6358;50.760;0.282;2024-03-22T02:13:47;2.37;;;1.80;;
12585;SDS011;6358;50.760;0.282;2024-03-22T02:16:13;1.60;;;1.50;;
12585;SDS011;6358;50.760;0.282;2024-03-22T02:18:39;2.13;;;1.93;;
12585;SDS011;6358;50.760;0.282;2024-03-22T02:21:05;3.17;;;1.80;;
12585;SDS011;6358;50.760;0.282;2024-03-22T02:25:57;1.90;;;1.70;;
12585;SDS011;6358;50.760;0.282;2024-03-22T02:28:23;3.30;;;1.90;;
12585;SDS011;6358;50.760;0.282;2024-03-22T02:30:50;1.97;;;1.83;;
12585;SDS011;6358;50.760;0.282;2024-03-22T02:33:16;2.23;;;1.90;;
12585;SDS011;6358;50.760;0.282;2024-03-22T02:35:42;3.00;;;1.90;;
12585;SDS011;6358;50.760;0.282;2024-03-22T02:38:08;1.77;;;1.57;;
12585;SDS011;6358;50.760;0.282;2024-03-22T02:40:34;2.30;;;1.80;;
12585;SDS011;6358;50.760;0.282;2024-03-22T02:43:00;2.20;;;1.90;;
12585;SDS011;6358;50.760;0.282;2024-03-22T02:45:26;2.00;;;1.70;;
12585;SDS011;6358;50.760;0.282;2024-03-22T02:47:52;2.63;;;1.83;;
12585;SDS011;6358;50.760;0.282;2024-03-22T02:50:19;2.20;;;1.80;;
12585;SDS011;6358;50.760;0.282;2024-03-22T02:52:45;1.70;;;1.60;;
12585;SDS011;6358;50.760;0.282;2024-03-22T02:55:11;2.83;;;1.57;;
12585;SDS011;6358;50.760;0.282;2024-03-22T02:57:37;3.17;;;1.87;;
12585;SDS011;6358;50.760;0.282;2024-03-22T03:00:03;2.47;;;1.70;;
12585;SDS011;6358;50.760;0.282;2024-03-22T03:02:30;2.10;;;1.90;;
12585;SDS011;6358;50.760;0.282;2024-03-22T03:04:56;2.30;;;1.90;;
12585;SDS011;6358;50.760;0.282;2024-03-22T03:07:23;2.13;;;1.93;;
12585;SDS011;6358;50.760;0.282;2024-03-22T03:09:49;2.63;;;2.00;;
12585;SDS011;6358;50.760;0.282;2024-03-22T03:12:15;2.30;;;1.90;;
12585;SDS011;6358;50.760;0.282;2024-03-22T03:14:41;2.40;;;1.90;;
12585;SDS011;6358;50.760;0.282;2024-03-22T03:17:07;2.57;;;1.80;;
12585;SDS011;6358;50.760;0.282;2024-03-22T03:19:33;2.43;;;1.90;;
12585;SDS011;6358;50.760;0.282;2024-03-22T03:21:59;2.27;;;1.80;;
12585;SDS011;6358;50.760;0.282;2024-03-22T03:24:26;2.10;;;1.83;;
12585;SDS011;6358;50.760;0.282;2024-03-22T03:26:52;3.53;;;2.00;;
12585;SDS011;6358;50.760;0.282;2024-03-22T03:29:18;1.83;;;1.60;;
12585;SDS011;6358;50.760;0.282;2024-03-22T03:31:44;2.83;;;1.90;;
12585;SDS011;6358;50.760;0.282;2024-03-22T03:34:10;2.50;;;1.90;;
12585;SDS011;6358;50.760;0.282;2024-03-22T03:36:36;3.53;;;2.07;;
12585;SDS011;6358;50.760;0.282;2024-03-22T03:39:02;2.20;;;1.97;;
12585;SDS011;6358;50.760;0.282;2024-03-22T03:41:31;3.77;;;2.00;;
12585;SDS011;6358;50.760;0.282;2024-03-22T03:43:57;1.80;;;1.67;;
12585;SDS011;6358;50.760;0.282;2024-03-22T03:46:24;2.47;;;1.90;;
12585;SDS011;6358;50.760;0.282;2024-03-22T03:48:50;3.43;;;2.00;;
12585;SDS011;6358;50.760;0.282;2024-03-22T03:51:16;3.37;;;1.90;;
12585;SDS011;6358;50.760;0.282;2024-03-22T03:53:42;1.87;;;1.70;;
12585;SDS011;6358;50.760;0.282;2024-03-22T03:56:08;2.80;;;2.00;;
12585;SDS011;6358;50.760;0.282;2024-03-22T03:58:34;3.00;;;1.60;;
12585;SDS011;6358;50.760;0.282;2024-03-22T04:01:04;2.70;;;1.70;;
12585;SDS011;6358;50.760;0.282;2024-03-22T04:03:31;2.43;;;2.00;;
12585;SDS011;6358;50.760;0.282;2024-03-22T04:05:57;1.60;;;1.50;;
12585;SDS011;6358;50.760;0.282;2024-03-22T04:08:24;4.30;;;1.80;;
12585;SDS011;6358;50.760;0.282;2024-03-22T04:10:53;2.77;;;1.93;;
12585;SDS011;6358;50.760;0.282;2024-03-22T04:13:21;2.83;;;1.80;;
12585;SDS011;6358;50.760;0.282;2024-03-22T04:15:48;2.50;;;1.63;;
12585;SDS011;6358;50.760;0.282;2024-03-22T04:18:14;2.37;;;1.63;;
12585;SDS011;6358;50.760;0.282;2024-03-22T04:20:40;3.87;;;1.70;;
12585;SDS011;6358;50.760;0.282;2024-03-22T04:23:06;2.90;;;1.70;;
12585;SDS011;6358;50.760;0.282;2024-03-22T04:25:32;3.40;;;1.70;;
12585;SDS011;6358;50.760;0.282;2024-03-22T04:27:58;2.97;;;1.80;;
12585;SDS011;6358;50.760;0.282;2024-03-22T04:30:24;2.33;;;1.73;;
12585;SDS011;6358;50.760;0.282;2024-03-22T04:32:51;2.07;;;1.53;;
12585;SDS011;6358;50.760;0.282;2024-03-22T04:35:17;2.77;;;2.17;;
12585;SDS011;6358;50.760;0.282;2024-03-22T04:37:43;3.23;;;1.70;;
12585;SDS011;6358;50.760;0.282;2024-03-22T04:40:09;2.27;;;1.70;;
12585;SDS011;6358;50.760;0.282;2024-03-22T04:42:35;3.13;;;1.70;;
12585;SDS011;6358;50.760;0.282;2024-03-22T04:45:01;2.27;;;1.50;;
12585;SDS011;6358;50.760;0.282;2024-03-22T04:47:27;2.27;;;1.60;;
12585;SDS011;6358;50.760;0.282;2024-03-22T04:49:54;1.97;;;1.60;;
12585;SDS011;6358;50.760;0.282;2024-03-22T04:52:20;3.27;;;1.80;;
12585;SDS011;6358;50.760;0.282;2024-03-22T04:54:46;2.67;;;1.50;;
12585;SDS011;6358;50.760;0.282;2024-03-22T04:57:12;2.70;;;1.70;;
12585;SDS011;6358;50.760;0.282;2024-03-22T04:59:38;2.03;;;1.60;;
12585;SDS011;6358;50.760;0.282;2024-03-22T05:02:04;1.53;;;1.30;;
12585;SDS011;6358;50.760;0.282;2024-03-22T05:04:31;3.30;;;1.60;;
12585;SDS011;6358;50.760;0.282;2024-03-22T05:06:57;1.70;;;1.50;;
12585;SDS011;6358;50.760;0.282;2024-03-22T05:09:23;2.23;;;1.70;;
12585;SDS011;6358;50.760;0.282;2024-03-22T05:11:49;1.77;;;1.40;;
12585;SDS011;6358;50.760;0.282;2024-03-22T05:14:15;2.50;;;1.50;;
12585;SDS011;6358;50.760;0.282;2024-03-22T05:16:42;1.63;;;1.40;;
12585;SDS011;6358;50.760;0.282;2024-03-22T05:19:08;2.40;;;1.50;;
12585;SDS011;6358;50.760;0.282;2024-03-22T05:21:34;2.43;;;1.43;;
12585;SDS011;6358;50.760;0.282;2024-03-22T05:24:00;2.07;;;1.80;;
12585;SDS011;6358;50.760;0.282;2024-03-22T05:26:26;2.67;;;1.57;;
12585;SDS011;6358;50.760;0.282;2024-03-22T05:28:52;2.93;;;1.47;;
12585;SDS011;6358;50.760;0.282;2024-03-22T05:31:18;1.63;;;1.43;;
12585;SDS011;6358;50.760;0.282;2024-03-22T05:33:45;2.43;;;1.60;;
12585;SDS011;6358;50.760;0.282;2024-03-22T05:36:11;1.90;;;1.60;;
12585;SDS011;6358;50.760;0.282;2024-03-22T05:38:37;3.20;;;1.43;;
12585;SDS011;6358;50.760;0.282;2024-03-22T05:41:04;2.33;;;1.60;;
12585;SDS011;6358;50.760;0.282;2024-03-22T05:43:30;1.47;;;1.20;;
12585;SDS011;6358;50.760;0.282;2024-03-22T05:45:56;1.70;;;1.37;;
12585;SDS011;6358;50.760;0.282;2024-03-22T05:48:22;1.67;;;1.33;;
12585;SDS011;6358;50.760;0.282;2024-03-22T05:50:48;1.80;;;1.37;;
12585;SDS011;6358;50.760;0.282;2024-03-22T05:53:15;2.40;;;1.40;;
12585;SDS011;6358;50.760;0.282;2024-03-22T05:55:42;3.30;;;1.53;;
12585;SDS011;6358;50.760;0.282;2024-03-22T05:58:08;2.20;;;1.50;;
12585;SDS011;6358;50.760;0.282;2024-03-22T06:00:34;3.33;;;1.37;;
12585;SDS011;6358;50.760;0.282;2024-03-22T06:03:00;2.80;;;1.47;;
12585;SDS011;6358;50.760;0.282;2024-03-22T06:05:26;1.80;;;1.50;;
12585;SDS011;6358;50.760;0.282;2024-03-22T06:07:52;2.07;;;1.43;;
12585;SDS011;6358;50.760;0.282;2024-03-22T06:10:18;2.57;;;1.40;;
12585;SDS011;6358;50.760;0.282;2024-03-22T06:12:44;2.10;;;1.40;;
12585;SDS011;6358;50.760;0.282;2024-03-22T06:15:12;2.87;;;1.70;;
12585;SDS011;6358;50.760;0.282;2024-03-22T06:17:38;4.43;;;1.67;;
12585;SDS011;6358;50.760;0.282;2024-03-22T06:20:04;1.97;;;1.40;;
12585;SDS011;6358;50.760;0.282;2024-03-22T06:22:31;2.70;;;1.33;;
12585;SDS011;6358;50.760;0.282;2024-03-22T06:24:57;1.83;;;1.50;;
12585;SDS011;6358;50.760;0.282;2024-03-22T06:27:23;2.97;;;1.50;;
12585;SDS011;6358;50.760;0.282;2024-03-22T06:29:49;2.20;;;1.40;;
12585;SDS011;6358;50.760;0.282;2024-03-22T06:32:15;2.23;;;1.47;;
12585;SDS011;6358;50.760;0.282;2024-03-22T06:34:44;2.80;;;1.50;;
12585;SDS011;6358;50.760;0.282;2024-03-22T06:37:10;2.87;;;1.60;;
12585;SDS011;6358;50.760;0.282;2024-03-22T06:39:37;2.40;;;1.40;;
12585;SDS011;6358;50.760;0.282;2024-03-22T06:42:03;3.30;;;1.50;;
12585;SDS011;6358;50.760;0.282;2024-03-22T06:44:29;2.33;;;1.20;;
12585;SDS011;6358;50.760;0.282;2024-03-22T06:46:56;2.23;;;1.40;;
12585;SDS011;6358;50.760;0.282;2024-03-22T06:49:22;3.10;;;1.30;;
12585;SDS011;6358;50.760;0.282;2024-03-22T06:51:48;1.70;;;1.20;;
12585;SDS011;6358;50.760;0.282;2024-03-22T06:54:14;3.00;;;1.30;;
12585;SDS011;6358;50.760;0.282;2024-03-22T06:56:40;2.47;;;1.37;;
12585;SDS011;6358;50.760;0.282;2024-03-22T06:59:06;2.10;;;1.20;;
12585;SDS011;6358;50.760;0.282;2024-03-22T07:01:32;1.97;;;1.30;;
12585;SDS011;6358;50.760;0.282;2024-03-22T07:03:58;3.67;;;1.33;;
12585;SDS011;6358;50.760;0.282;2024-03-22T07:06:25;2.83;;;1.27;;
12585;SDS011;6358;50.760;0.282;2024-03-22T07:08:51;2.27;;;1.40;;
12585;SDS011;6358;50.760;0.282;2024-03-22T07:11:17;1.17;;;1.07;;
12585;SDS011;6358;50.760;0.282;2024-03-22T07:13:43;1.80;;;1.17;;
12585;SDS011;6358;50.760;0.282;2024-03-22T07:16:09;1.27;;;1.03;;
12585;SDS011;6358;50.760;0.282;2024-03-22T07:18:35;1.20;;;1.10;;
12585;SDS011;6358;50.760;0.282;2024-03-22T07:21:01;1.80;;;1.00;;
12585;SDS011;6358;50.760;0.282;2024-03-22T07:23:28;1.77;;;1.10;;
12585;SDS011;6358;50.760;0.282;2024-03-22T07:25:55;3.93;;;1.80;;
12585;SDS011;6358;50.760;0.282;2024-03-22T07:28:21;1.53;;;1.30;;
12585;SDS011;6358;50.760;0.282;2024-03-22T07:30:47;1.83;;;1.30;;
12585;SDS011;6358;50.760;0.282;2024-03-22T07:33:14;2.83;;;1.43;;
12585;SDS011;6358;50.760;0.282;2024-03-22T07:35:45;2.53;;;1.20;;
12585;SDS011;6358;50.760;0.282;2024-03-22T07:38:14;2.70;;;1.30;;
12585;SDS011;6358;50.760;0.282;2024-03-22T07:40:40;2.53;;;1.30;;
12585;SDS011;6358;50.760;0.282;2024-03-22T07:43:06;1.60;;;1.20;;
12585;SDS011;6358;50.760;0.282;2024-03-22T07:45:33;2.00;;;1.10;;
12585;SDS011;6358;50.760;0.282;2024-03-22T07:48:00;2.40;;;1.20;;
12585;SDS011;6358;50.760;0.282;2024-03-22T07:50:26;1.67;;;1.10;;
12585;SDS011;6358;50.760;0.282;2024-03-22T07:52:52;1.30;;;1.00;;
12585;SDS011;6358;50.760;0.282;2024-03-22T07:55:19;7.17;;;1.50;;
12585;SDS011;6358;50.760;0.282;2024-03-22T07:57:45;3.60;;;1.50;;
12585;SDS011;6358;50.760;0.282;2024-03-22T08:00:14;7.70;;;1.53;;
12585;SDS011;6358;50.760;0.282;2024-03-22T08:02:41;2.53;;;1.40;;
12585;SDS011;6358;50.760;0.282;2024-03-22T08:05:07;6.23;;;1.80;;
12585;SDS011;6358;50.760;0.282;2024-03-22T08:07:33;3.07;;;1.40;;
12585;SDS011;6358;50.760;0.282;2024-03-22T08:09:59;2.87;;;1.27;;
12585;SDS011;6358;50.760;0.282;2024-03-22T08:12:27;4.57;;;1.33;;
12585;SDS011;6358;50.760;0.282;2024-03-22T08:14:53;5.27;;;1.40;;
12585;SDS011;6358;50.760;0.282;2024-03-22T08:17:20;4.20;;;1.47;;
12585;SDS011;6358;50.760;0.282;2024-03-22T08:19:46;8.80;;;1.47;;
12585;SDS011;6358;50.760;0.282;2024-03-22T08:22:12;3.33;;;1.23;;
12585;SDS011;6358;50.760;0.282;2024-03-22T08:24:39;6.53;;;1.60;;
12585;SDS011;6358;50.760;0.282;2024-03-22T08:27:05;3.70;;;1.60;;
12585;SDS011;6358;50.760;0.282;2024-03-22T08:29:31;7.20;;;1.63;;
12585;SDS011;6358;50.760;0.282;2024-03-22T08:31:57;4.80;;;1.53;;
12585;SDS011;6358;50.760;0.282;2024-03-22T08:34:23;2.80;;;1.50;;
12585;SDS011;6358;50.760;0.282;2024-03-22T08:36:50;3.13;;;1.60;;
12585;SDS011;6358;50.760;0.282;2024-03-22T08:39:16;3.63;;;1.57;;
12585;SDS011;6358;50.760;0.282;2024-03-22T08:41:42;4.30;;;1.93;;
12585;SDS011;6358;50.760;0.282;2024-03-22T08:44:09;3.73;;;2.20;;
12585;SDS011;6358;50.760;0.282;2024-03-22T08:46:35;9.67;;;2.60;;
12585;SDS011;6358;50.760;0.282;2024-03-22T08:49:02;2.67;;;1.90;;
12585;SDS011;6358;50.760;0.282;2024-03-22T08:51:28;3.27;;;1.83;;
12585;SDS011;6358;50.760;0.282;2024-03-22T08:53:54;5.30;;;1.90;;
12585;SDS011;6358;50.760;0.282;2024-03-22T08:56:21;4.63;;;1.90;;
12585;SDS011;6358;50.760;0.282;2024-03-22T08:58:47;4.30;;;2.20;;
12585;SDS011;6358;50.760;0.282;2024-03-22T09:01:13;3.17;;;1.83;;
12585;SDS011;6358;50.760;0.282;2024-03-22T09:03:39;3.33;;;1.60;;
12585;SDS011;6358;50.760;0.282;2024-03-22T09:06:05;2.13;;;1.60;;
12585;SDS011;6358;50.760;0.282;2024-03-22T09:08:31;5.20;;;1.73;;
12585;SDS011;6358;50.760;0.282;2024-03-22T09:10:58;3.03;;;1.70;;
12585;SDS011;6358;50.760;0.282;2024-03-22T09:13:25;3.07;;;1.80;;
12585;SDS011;6358;50.760;0.282;2024-03-22T09:15:57;2.53;;;1.60;;
12585;SDS011;6358;50.760;0.282;2024-03-22T09:18:24;4.37;;;1.50;;
12585;SDS011;6358;50.760;0.282;2024-03-22T09:20:50;3.47;;;1.60;;
12585;SDS011;6358;50.760;0.282;2024-03-22T09:23:16;2.60;;;1.53;;
12585;SDS011;6358;50.760;0.282;2024-03-22T09:25:42;3.43;;;1.53;;
12585;SDS011;6358;50.760;0.282;2024-03-22T09:28:08;2.37;;;1.60;;
12585;SDS011;6358;50.760;0.282;2024-03-22T09:30:37;3.80;;;1.57;;
12585;SDS011;6358;50.760;0.282;2024-03-22T09:33:04;2.13;;;1.50;;
12585;SDS011;6358;50.760;0.282;2024-03-22T09:35:30;2.90;;;1.37;;
12585;SDS011;6358;50.760;0.282;2024-03-22T09:37:57;1.53;;;1.30;;
12585;SDS011;6358;50.760;0.282;2024-03-22T09:40:23;4.07;;;1.70;;
12585;SDS011;6358;50.760;0.282;2024-03-22T09:42:49;3.67;;;1.43;;
12585;SDS011;6358;50.760;0.282;2024-03-22T09:45:18;1.97;;;1.60;;
12585;SDS011;6358;50.760;0.282;2024-03-22T09:47:45;3.03;;;1.57;;
12585;SDS011;6358;50.760;0.282;2024-03-22T09:50:11;2.93;;;1.47;;
12585;SDS011;6358;50.760;0.282;2024-03-22T09:52:38;3.70;;;1.60;;
12585;SDS011;6358;50.760;0.282;2024-03-22T09:55:07;4.43;;;1.73;;
12585;SDS011;6358;50.760;0.282;2024-03-22T09:57:37;2.73;;;1.60;;
12585;SDS011;6358;50.760;0.282;2024-03-22T10:00:06;2.77;;;1.70;;
12585;SDS011;6358;50.760;0.282;2024-03-22T10:02:33;2.67;;;1.40;;
12585;SDS011;6358;50.760;0.282;2024-03-22T10:04:59;2.73;;;1.60;;
12585;SDS011;6358;50.760;0.282;2024-03-22T10:07:27;3.67;;;1.60;;
12585;SDS011;6358;50.760;0.282;2024-03-22T10:09:57;3.73;;;1.80;;
12585;SDS011;6358;50.760;0.282;2024-03-22T10:12:23;2.60;;;1.50;;
12585;SDS011;6358;50.760;0.282;2024-03-22T10:14:52;3.30;;;1.40;;
12585;SDS011;6358;50.760;0.282;2024-03-22T10:17:18;3.00;;;1.60;;
12585;SDS011;6358;50.760;0.282;2024-03-22T10:19:44;2.73;;;1.50;;
12585;SDS011;6358;50.760;0.282;2024-03-22T10:22:10;2.93;;;1.40;;
12585;SDS011;6358;50.760;0.282;2024-03-22T10:24:36;2.37;;;1.33;;
12585;SDS011;6358;50.760;0.282;2024-03-22T10:27:02;5.03;;;1.50;;
12585;SDS011;6358;50.760;0.282;2024-03-22T10:29:28;2.17;;;1.50;;
12585;SDS011;6358;50.760;0.282;2024-03-22T10:31:55;2.20;;;1.23;;
12585;SDS011;6358;50.760;0.282;2024-03-22T10:34:21;2.87;;;1.50;;
12585;SDS011;6358;50.760;0.282;2024-03-22T10:36:48;2.77;;;1.47;;
12585;SDS011;6358;50.760;0.282;2024-03-22T10:39:18;2.73;;;1.57;;
12585;SDS011;6358;50.760;0.282;2024-03-22T10:41:47;1.73;;;1.23;;
12585;SDS011;6358;50.760;0.282;2024-03-22T10:44:13;2.53;;;1.53;;
12585;SDS011;6358;50.760;0.282;2024-03-22T10:46:47;2.30;;;1.57;;
12585;SDS011;6358;50.760;0.282;2024-03-22T10:49:17;3.03;;;1.77;;
12585;SDS011;6358;50.760;0.282;2024-03-22T10:51:54;2.17;;;1.50;;
12585;SDS011;6358;50.760;0.282;2024-03-22T10:54:24;3.87;;;1.40;;
12585;SDS011;6358;50.760;0.282;2024-03-22T10:56:51;2.93;;;1.47;;
12585;SDS011;6358;50.760;0.282;2024-03-22T10:59:23;2.80;;;1.60;;
12585;SDS011;6358;50.760;0.282;2024-03-22T11:01:49;1.87;;;1.37;;
12585;SDS011;6358;50.760;0.282;2024-03-22T11:04:19;2.37;;;1.50;;
12585;SDS011;6358;50.760;0.282;2024-03-22T11:06:49;2.03;;;1.53;;
12585;SDS011;6358;50.760;0.282;2024-03-22T11:09:22;2.50;;;1.70;;
12585;SDS011;6358;50.760;0.282;2024-03-22T11:11:48;2.67;;;1.50;;
12585;SDS011;6358;50.760;0.282;2024-03-22T11:14:14;2.13;;;1.40;;
12585;SDS011;6358;50.760;0.282;2024-03-22T11:16:44;3.10;;;1.43;;
12585;SDS011;6358;50.760;0.282;2024-03-22T11:19:10;4.00;;;1.67;;
12585;SDS011;6358;50.760;0.282;2024-03-22T11:21:37;2.27;;;1.47;;
12585;SDS011;6358;50.760;0.282;2024-03-22T11:24:03;2.60;;;1.70;;
12585;SDS011;6358;50.760;0.282;2024-03-22T11:26:30;1.73;;;1.53;;
12585;SDS011;6358;50.760;0.282;2024-03-22T11:28:56;2.77;;;1.50;;
12585;SDS011;6358;50.760;0.282;2024-03-22T11:31:22;1.40;;;1.30;;
12585;SDS011;6358;50.760;0.282;2024-03-22T11:33:55;1.67;;;1.40;;
12585;SDS011;6358;50.760;0.282;2024-03-22T11:36:24;2.00;;;1.60;;
12585;SDS011;6358;50.760;0.282;2024-03-22T11:38:50;1.57;;;1.33;;
12585;SDS011;6358;50.760;0.282;2024-03-22T11:41:20;1.80;;;1.60;;
12585;SDS011;6358;50.760;0.282;2024-03-22T11:43:48;2.63;;;1.47;;
12585;SDS011;6358;50.760;0.282;2024-03-22T11:46:17;4.53;;;1.60;;
12585;SDS011;6358;50.760;0.282;2024-03-22T11:48:43;1.50;;;1.30;;
12585;SDS011;6358;50.760;0.282;2024-03-22T11:51:09;1.87;;;1.50;;
12585;SDS011;6358;50.760;0.282;2024-03-22T11:53:36;4.27;;;1.70;;
12585;SDS011;6358;50.760;0.282;2024-03-22T11:56:02;2.67;;;1.57;;
12585;SDS011;6358;50.760;0.282;2024-03-22T11:58:29;2.60;;;1.60;;
12585;SDS011;6358;50.760;0.282;2024-03-22T12:00:58;2.93;;;1.90;;
12585;SDS011;6358;50.760;0.282;2024-03-22T12:03:24;3.97;;;1.73;;
12585;SDS011;6358;50.760;0.282;2024-03-22T12:05:52;3.10;;;1.80;;
12585;SDS011;6358;50.760;0.282;2024-03-22T12:08:20;2.37;;;1.67;;
12585;SDS011;6358;50.760;0.282;2024-03-22T12:10:46;2.60;;;1.47;;
12585;SDS011;6358;50.760;0.282;2024-03-22T12:13:12;3.27;;;1.60;;
12585;SDS011;6358;50.760;0.282;2024-03-22T12:15:38;3.30;;;1.60;;
12585;SDS011;6358;50.760;0.282;2024-03-22T12:24:39;3.60;;;1.60;;
12585;SDS011;6358;50.760;0.282;2024-03-22T12:27:05;2.50;;;1.57;;
12585;SDS011;6358;50.760;0.282;2024-03-22T12:29:32;1.63;;;1.50;;
12585;SDS011;6358;50.760;0.282;2024-03-22T12:31:58;1.90;;;1.70;;
12585;SDS011;6358;50.760;0.282;2024-03-22T12:34:26;3.13;;;1.70;;
12585;SDS011;6358;50.760;0.282;2024-03-22T12:36:54;2.87;;;1.80;;
12585;SDS011;6358;50.760;0.282;2024-03-22T12:39:20;3.27;;;1.70;;
12585;SDS011;6358;50.760;0.282;2024-03-22T12:41:47;3.10;;;1.77;;
12585;SDS011;6358;50.760;0.282;2024-03-22T12:44:13;3.17;;;1.67;;
12585;SDS011;6358;50.760;0.282;2024-03-22T12:46:39;2.07;;;1.60;;
12585;SDS011;6358;50.760;0.282;2024-03-22T12:49:07;2.93;;;1.63;;
12585;SDS011;6358;50.760;0.282;2024-03-22T12:51:34;3.40;;;1.63;;
12585;SDS011;6358;50.760;0.282;2024-03-22T12:54:01;3.53;;;1.80;;
12585;SDS011;6358;50.760;0.282;2024-03-22T12:56:27;2.47;;;1.80;;
12585;SDS011;6358;50.760;0.282;2024-03-22T12:58:53;3.50;;;1.83;;
12585;SDS011;6358;50.760;0.282;2024-03-22T13:01:19;2.40;;;1.57;;
12585;SDS011;6358;50.760;0.282;2024-03-22T13:03:45;4.87;;;1.87;;
12585;SDS011;6358;50.760;0.282;2024-03-22T13:06:11;3.37;;;2.10;;
12585;SDS011;6358;50.760;0.282;2024-03-22T13:08:38;3.57;;;1.80;;
12585;SDS011;6358;50.760;0.282;2024-03-22T13:11:04;3.23;;;2.03;;
12585;SDS011;6358;50.760;0.282;2024-03-22T13:13:33;18.53;;;2.53;;
12585;SDS011;6358;50.760;0.282;2024-03-22T13:15:59;1.93;;;1.73;;
12585;SDS011;6358;50.760;0.282;2024-03-22T13:18:27;3.43;;;1.83;;
12585;SDS011;6358;50.760;0.282;2024-03-22T13:20:53;4.57;;;2.00;;
12585;SDS011;6358;50.760;0.282;2024-03-22T13:23:19;4.03;;;1.70;;
12585;SDS011;6358;50.760;0.282;2024-03-22T13:25:45;2.30;;;1.80;;
12585;SDS011;6358;50.760;0.282;2024-03-22T13:28:12;3.57;;;1.83;;
12585;SDS011;6358;50.760;0.282;2024-03-22T13:30:38;3.80;;;1.80;;
12585;SDS011;6358;50.760;0.282;2024-03-22T13:33:05;3.83;;;1.87;;
12585;SDS011;6358;50.760;0.282;2024-03-22T13:35:33;3.40;;;1.80;;
12585;SDS011;6358;50.760;0.282;2024-03-22T13:37:59;4.07;;;1.80;;
12585;SDS011;6358;50.760;0.282;2024-03-22T13:40:26;2.57;;;1.77;;
12585;SDS011;6358;50.760;0.282;2024-03-22T13:42:55;2.60;;;1.90;;
12585;SDS011;6358;50.760;0.282;2024-03-22T13:45:21;6.07;;;2.10;;
12585;SDS011;6358;50.760;0.282;2024-03-22T13:47:47;3.33;;;2.27;;
12585;SDS011;6358;50.760;0.282;2024-03-22T13:50:14;1.80;;;1.60;;
12585;SDS011;6358;50.760;0.282;2024-03-22T13:52:40;5.13;;;1.93;;
12585;SDS011;6358;50.760;0.282;2024-03-22T13:55:06;4.63;;;2.00;;
12585;SDS011;6358;50.760;0.282;2024-03-22T13:57:33;5.40;;;1.93;;
12585;SDS011;6358;50.760;0.282;2024-03-22T13:59:59;3.00;;;1.90;;
12585;SDS011;6358;50.760;0.282;2024-03-22T14:02:28;3.97;;;1.87;;
12585;SDS011;6358;50.760;0.282;2024-03-22T14:04:56;3.43;;;1.90;;
12585;SDS011;6358;50.760;0.282;2024-03-22T14:07:22;3.03;;;1.60;;
12585;SDS011;6358;50.760;0.282;2024-03-22T14:09:48;2.67;;;2.00;;
12585;SDS011;6358;50.760;0.282;2024-03-22T14:12:14;4.43;;;1.73;;
12585;SDS011;6358;50.760;0.282;2024-03-22T14:14:40;3.37;;;1.90;;
12585;SDS011;6358;50.760;0.282;2024-03-22T14:17:06;3.20;;;1.77;;
12585;SDS011;6358;50.760;0.282;2024-03-22T14:19:33;6.37;;;2.00;;
12585;SDS011;6358;50.760;0.282;2024-03-22T14:21:59;4.30;;;2.00;;
12585;SDS011;6358;50.760;0.282;2024-03-22T14:24:25;5.83;;;1.77;;
12585;SDS011;6358;50.760;0.282;2024-03-22T14:26:51;4.23;;;1.83;;
12585;SDS011;6358;50.760;0.282;2024-03-22T14:29:17;13.23;;;2.53;;
12585;SDS011;6358;50.760;0.282;2024-03-22T14:31:44;3.43;;;1.80;;
12585;SDS011;6358;50.760;0.282;2024-03-22T14:34:10;6.90;;;2.07;;
12585;SDS011;6358;50.760;0.282;2024-03-22T14:36:37;4.53;;;2.10;;
12585;SDS011;6358;50.760;0.282;2024-03-22T14:39:03;3.77;;;1.57;;
12585;SDS011;6358;50.760;0.282;2024-03-22T14:41:31;4.10;;;1.77;;
12585;SDS011;6358;50.760;0.282;2024-03-22T14:43:57;4.33;;;1.70;;
12585;SDS011;6358;50.760;0.282;2024-03-22T14:46:23;5.57;;;1.97;;
12585;SDS011;6358;50.760;0.282;2024-03-22T14:48:54;5.90;;;1.90;;
12585;SDS011;6358;50.760;0.282;2024-03-22T14:51:20;7.47;;;2.37;;
12585;SDS011;6358;50.760;0.282;2024-03-22T14:53:47;6.70;;;1.70;;
12585;SDS011;6358;50.760;0.282;2024-03-22T14:56:13;5.90;;;2.00;;
12585;SDS011;6358;50.760;0.282;2024-03-22T14:58:39;3.30;;;1.70;;
12585;SDS011;6358;50.760;0.282;2024-03-22T15:01:07;6.47;;;2.00;;
12585;SDS011;6358;50.760;0.282;2024-03-22T15:03:34;4.00;;;1.67;;
12585;SDS011;6358;50.760;0.282;2024-03-22T15:06:00;4.27;;;1.73;;